sensor_id;sensor_type;location;lat;lon;timestamp;P1;durP1;ratioP1;P2;durP2;ratioP2
50695;SDS011;36665;51.786;21.594;2023-03-01T00:08:05;105.60;;;40.80;;
50695;SDS011;36665;51.786;21.594;2023-03-01T00:16:29;93.00;;;38.60;;
50695;SDS011;36665;51.786;21.594;2023-03-01T00:24:56;76.60;;;33.10;;
50695;SDS011;36665;51.786;21.594;2023-03-01T00:33:19;110.80;;;44.50;;
50695;SDS011;36665;51.786;21.594;2023-03-01T00:41:42;110.10;;;43.80;;
50695;SDS011;36665;51.786;21.594;2023-03-01T00:50:06;105.90;;;40.10;;
50695;SDS011;36665;51.786;21.594;2023-03-01T00:58:32;66.50;;;28.60;;
50695;SDS011;36665;51.786;21.594;2023-03-01T01:06:56;93.10;;;38.60;;
50695;SDS011;36665;51.786;21.594;2023-03-01T01:15:20;92.50;;;38.30;;
50695;SDS011;36665;51.786;21.594;2023-03-01T01:23:43;90.80;;;33.60;;
50695;SDS011;36665;51.786;21.594;2023-03-01T01:32:07;70.20;;;30.20;;
50695;SDS011;36665;51.786;21.594;2023-03-01T01:40:31;101.40;;;39.80;;
50695;SDS011;36665;51.786;21.594;2023-03-01T01:48:57;93.80;;;39.50;;
50695;SDS011;36665;51.786;21.594;2023-03-01T01:57:31;92.70;;;35.50;;
50695;SDS011;36665;51.786;21.594;2023-03-01T02:06:13;60.70;;;28.40;;
50695;SDS011;36665;51.786;21.594;2023-03-01T02:14:39;75.90;;;34.60;;
50695;SDS011;36665;51.786;21.594;2023-03-01T02:23:02;89.90;;;35.30;;
50695;SDS011;36665;51.786;21.594;2023-03-01T02:31:25;84.60;;;33.80;;
50695;SDS011;36665;51.786;21.594;2023-03-01T02:40:06;72.30;;;28.90;;
50695;SDS011;36665;51.786;21.594;2023-03-01T02:48:42;86.10;;;35.50;;
50695;SDS011;36665;51.786;21.594;2023-03-01T02:57:09;81.40;;;34.70;;
50695;SDS011;36665;51.786;21.594;2023-03-01T03:05:34;71.70;;;32.80;;
50695;SDS011;36665;51.786;21.594;2023-03-01T03:13:57;78.80;;;32.50;;
50695;SDS011;36665;51.786;21.594;2023-03-01T03:22:21;74.10;;;30.30;;
50695;SDS011;36665;51.786;21.594;2023-03-01T03:30:44;82.20;;;33.20;;
50695;SDS011;36665;51.786;21.594;2023-03-01T03:39:07;93.30;;;34.30;;
50695;SDS011;36665;51.786;21.594;2023-03-01T03:47:30;97.10;;;38.40;;
50695;SDS011;36665;51.786;21.594;2023-03-01T03:55:53;89.60;;;34.30;;
50695;SDS011;36665;51.786;21.594;2023-03-01T04:04:17;87.90;;;35.20;;
50695;SDS011;36665;51.786;21.594;2023-03-01T04:12:41;81.20;;;31.80;;
50695;SDS011;36665;51.786;21.594;2023-03-01T04:21:07;78.40;;;31.10;;
50695;SDS011;36665;51.786;21.594;2023-03-01T04:29:30;77.70;;;31.70;;
50695;SDS011;36665;51.786;21.594;2023-03-01T04:37:53;88.40;;;33.10;;
50695;SDS011;36665;51.786;21.594;2023-03-01T04:46:18;93.80;;;39.50;;
50695;SDS011;36665;51.786;21.594;2023-03-01T04:54:44;94.90;;;37.60;;
50695;SDS011;36665;51.786;21.594;2023-03-01T05:03:07;136.80;;;55.40;;
50695;SDS011;36665;51.786;21.594;2023-03-01T05:11:31;84.40;;;35.10;;
50695;SDS011;36665;51.786;21.594;2023-03-01T05:19:58;73.80;;;32.10;;
50695;SDS011;36665;51.786;21.594;2023-03-01T05:28:22;74.70;;;32.80;;
50695;SDS011;36665;51.786;21.594;2023-03-01T05:36:45;75.10;;;34.50;;
50695;SDS011;36665;51.786;21.594;2023-03-01T05:45:08;110.00;;;51.10;;
50695;SDS011;36665;51.786;21.594;2023-03-01T05:53:32;111.30;;;47.30;;
50695;SDS011;36665;51.786;21.594;2023-03-01T06:01:55;104.10;;;42.80;;
50695;SDS011;36665;51.786;21.594;2023-03-01T06:10:18;70.30;;;30.30;;
50695;SDS011;36665;51.786;21.594;2023-03-01T06:18:43;89.30;;;37.50;;
50695;SDS011;36665;51.786;21.594;2023-03-01T06:27:06;91.60;;;38.20;;
50695;SDS011;36665;51.786;21.594;2023-03-01T06:35:29;101.40;;;36.60;;
50695;SDS011;36665;51.786;21.594;2023-03-01T06:43:53;74.00;;;32.00;;
50695;SDS011;36665;51.786;21.594;2023-03-01T06:52:17;67.70;;;28.70;;
50695;SDS011;36665;51.786;21.594;2023-03-01T07:00:41;89.60;;;33.90;;
50695;SDS011;36665;51.786;21.594;2023-03-01T07:09:05;88.80;;;37.80;;
50695;SDS011;36665;51.786;21.594;2023-03-01T07:17:29;68.50;;;29.70;;
50695;SDS011;36665;51.786;21.594;2023-03-01T07:25:53;60.00;;;26.80;;
50695;SDS011;36665;51.786;21.594;2023-03-01T07:34:18;53.90;;;24.00;;
50695;SDS011;36665;51.786;21.594;2023-03-01T07:42:41;58.90;;;26.20;;
50695;SDS011;36665;51.786;21.594;2023-03-01T07:51:05;55.40;;;24.90;;
50695;SDS011;36665;51.786;21.594;2023-03-01T07:59:30;48.20;;;22.90;;
50695;SDS011;36665;51.786;21.594;2023-03-01T08:07:54;49.20;;;21.90;;
50695;SDS011;36665;51.786;21.594;2023-03-01T08:16:17;43.60;;;21.30;;
50695;SDS011;36665;51.786;21.594;2023-03-01T08:24:40;41.90;;;19.80;;
50695;SDS011;36665;51.786;21.594;2023-03-01T08:33:03;45.10;;;20.30;;
50695;SDS011;36665;51.786;21.594;2023-03-01T08:41:27;37.20;;;17.80;;
50695;SDS011;36665;51.786;21.594;2023-03-01T08:49:50;36.70;;;18.40;;
50695;SDS011;36665;51.786;21.594;2023-03-01T08:58:13;34.80;;;19.40;;
50695;SDS011;36665;51.786;21.594;2023-03-01T09:06:36;33.40;;;15.70;;
50695;SDS011;36665;51.786;21.594;2023-03-01T09:15:00;32.10;;;18.50;;
50695;SDS011;36665;51.786;21.594;2023-03-01T09:23:23;27.90;;;16.50;;
50695;SDS011;36665;51.786;21.594;2023-03-01T09:31:46;30.80;;;16.10;;
50695;SDS011;36665;51.786;21.594;2023-03-01T09:40:11;30.00;;;13.20;;
50695;SDS011;36665;51.786;21.594;2023-03-01T09:48:41;29.20;;;14.70;;
50695;SDS011;36665;51.786;21.594;2023-03-01T10:14:15;21.90;;;11.40;;
50695;SDS011;36665;51.786;21.594;2023-03-01T10:22:57;20.30;;;11.10;;
50695;SDS011;36665;51.786;21.594;2023-03-01T10:31:22;20.50;;;9.80;;
50695;SDS011;36665;51.786;21.594;2023-03-01T10:48:25;16.40;;;8.90;;
50695;SDS011;36665;51.786;21.594;2023-03-01T10:56:51;17.60;;;9.70;;
50695;SDS011;36665;51.786;21.594;2023-03-01T11:05:20;19.50;;;9.70;;
50695;SDS011;36665;51.786;21.594;2023-03-01T11:13:55;25.00;;;9.80;;
50695;SDS011;36665;51.786;21.594;2023-03-01T11:22:21;12.90;;;7.30;;
50695;SDS011;36665;51.786;21.594;2023-03-01T11:31:04;27.20;;;14.70;;
50695;SDS011;36665;51.786;21.594;2023-03-01T11:47:58;13.80;;;7.30;;
50695;SDS011;36665;51.786;21.594;2023-03-01T11:56:40;22.40;;;10.30;;
50695;SDS011;36665;51.786;21.594;2023-03-01T12:49:20;15.80;;;6.80;;
50695;SDS011;36665;51.786;21.594;2023-03-01T12:57:56;17.80;;;8.10;;
50695;SDS011;36665;51.786;21.594;2023-03-01T13:06:25;12.00;;;6.00;;
50695;SDS011;36665;51.786;21.594;2023-03-01T13:23:47;12.10;;;6.20;;
50695;SDS011;36665;51.786;21.594;2023-03-01T13:32:24;11.90;;;5.70;;
50695;SDS011;36665;51.786;21.594;2023-03-01T13:40:59;10.20;;;5.50;;
50695;SDS011;36665;51.786;21.594;2023-03-01T13:49:28;12.20;;;6.30;;
50695;SDS011;36665;51.786;21.594;2023-03-01T14:06:39;14.30;;;7.50;;
50695;SDS011;36665;51.786;21.594;2023-03-01T14:15:50;16.70;;;9.20;;
50695;SDS011;36665;51.786;21.594;2023-03-01T14:23:49;29.70;;;10.60;;
50695;SDS011;36665;51.786;21.594;2023-03-01T14:40:43;22.70;;;11.40;;
50695;SDS011;36665;51.786;21.594;2023-03-01T14:57:50;28.40;;;16.60;;
50695;SDS011;36665;51.786;21.594;2023-03-01T15:06:15;42.60;;;19.20;;
50695;SDS011;36665;51.786;21.594;2023-03-01T15:14:42;51.10;;;19.10;;
50695;SDS011;36665;51.786;21.594;2023-03-01T15:23:24;62.10;;;27.10;;
50695;SDS011;36665;51.786;21.594;2023-03-01T15:31:59;165.40;;;60.70;;
50695;SDS011;36665;51.786;21.594;2023-03-01T15:40:27;47.30;;;21.70;;
50695;SDS011;36665;51.786;21.594;2023-03-01T15:48:58;60.50;;;28.40;;
50695;SDS011;36665;51.786;21.594;2023-03-01T15:57:25;88.10;;;40.20;;
50695;SDS011;36665;51.786;21.594;2023-03-01T16:05:50;164.10;;;73.40;;
50695;SDS011;36665;51.786;21.594;2023-03-01T16:14:14;168.40;;;67.40;;
50695;SDS011;36665;51.786;21.594;2023-03-01T16:22:39;62.20;;;29.70;;
50695;SDS011;36665;51.786;21.594;2023-03-01T16:31:03;115.80;;;52.80;;
50695;SDS011;36665;51.786;21.594;2023-03-01T16:39:27;137.80;;;64.70;;
50695;SDS011;36665;51.786;21.594;2023-03-01T16:47:51;85.70;;;43.60;;
50695;SDS011;36665;51.786;21.594;2023-03-01T16:56:18;124.80;;;57.60;;
50695;SDS011;36665;51.786;21.594;2023-03-01T17:04:41;48.70;;;21.90;;
50695;SDS011;36665;51.786;21.594;2023-03-01T17:13:04;44.60;;;18.20;;
50695;SDS011;36665;51.786;21.594;2023-03-01T17:21:27;43.70;;;17.20;;
50695;SDS011;36665;51.786;21.594;2023-03-01T17:29:51;138.90;;;62.90;;
50695;SDS011;36665;51.786;21.594;2023-03-01T17:38:14;51.30;;;24.60;;
50695;SDS011;36665;51.786;21.594;2023-03-01T17:46:41;42.10;;;14.70;;
50695;SDS011;36665;51.786;21.594;2023-03-01T17:55:05;56.30;;;23.70;;
50695;SDS011;36665;51.786;21.594;2023-03-01T18:03:28;92.90;;;40.20;;
50695;SDS011;36665;51.786;21.594;2023-03-01T18:11:51;88.80;;;42.60;;
50695;SDS011;36665;51.786;21.594;2023-03-01T18:20:15;82.70;;;27.90;;
50695;SDS011;36665;51.786;21.594;2023-03-01T18:28:39;141.20;;;52.00;;
50695;SDS011;36665;51.786;21.594;2023-03-01T18:37:03;145.40;;;56.30;;
50695;SDS011;36665;51.786;21.594;2023-03-01T18:45:31;110.00;;;44.50;;
50695;SDS011;36665;51.786;21.594;2023-03-01T18:53:55;83.60;;;33.40;;
50695;SDS011;36665;51.786;21.594;2023-03-01T19:02:22;103.50;;;46.80;;
50695;SDS011;36665;51.786;21.594;2023-03-01T19:10:45;82.80;;;35.30;;
50695;SDS011;36665;51.786;21.594;2023-03-01T19:19:08;57.20;;;25.80;;
50695;SDS011;36665;51.786;21.594;2023-03-01T19:27:32;52.00;;;25.00;;
50695;SDS011;36665;51.786;21.594;2023-03-01T19:35:55;57.90;;;24.60;;
50695;SDS011;36665;51.786;21.594;2023-03-01T19:44:21;80.30;;;32.80;;
50695;SDS011;36665;51.786;21.594;2023-03-01T19:52:47;49.60;;;19.80;;
50695;SDS011;36665;51.786;21.594;2023-03-01T20:01:12;235.30;;;85.60;;
50695;SDS011;36665;51.786;21.594;2023-03-01T20:09:37;267.10;;;100.50;;
50695;SDS011;36665;51.786;21.594;2023-03-01T20:18:01;194.90;;;78.80;;
50695;SDS011;36665;51.786;21.594;2023-03-01T20:26:24;229.30;;;78.50;;
50695;SDS011;36665;51.786;21.594;2023-03-01T20:34:48;170.50;;;63.30;;
50695;SDS011;36665;51.786;21.594;2023-03-01T20:43:11;138.10;;;54.00;;
50695;SDS011;36665;51.786;21.594;2023-03-01T20:51:34;153.90;;;55.40;;
50695;SDS011;36665;51.786;21.594;2023-03-01T20:59:57;152.50;;;58.70;;
50695;SDS011;36665;51.786;21.594;2023-03-01T21:08:20;177.90;;;65.00;;
50695;SDS011;36665;51.786;21.594;2023-03-01T21:16:43;154.70;;;58.10;;
50695;SDS011;36665;51.786;21.594;2023-03-01T21:25:09;135.60;;;46.40;;
50695;SDS011;36665;51.786;21.594;2023-03-01T21:33:33;123.10;;;47.90;;
50695;SDS011;36665;51.786;21.594;2023-03-01T21:42:00;106.70;;;42.40;;
50695;SDS011;36665;51.786;21.594;2023-03-01T21:50:25;95.90;;;37.40;;
50695;SDS011;36665;51.786;21.594;2023-03-01T21:58:49;73.00;;;28.40;;
50695;SDS011;36665;51.786;21.594;2023-03-01T22:07:12;85.40;;;35.50;;
50695;SDS011;36665;51.786;21.594;2023-03-01T22:15:40;92.40;;;33.40;;
50695;SDS011;36665;51.786;21.594;2023-03-01T22:24:05;91.90;;;34.10;;
50695;SDS011;36665;51.786;21.594;2023-03-01T22:32:29;102.10;;;37.60;;
50695;SDS011;36665;51.786;21.594;2023-03-01T22:40:59;140.10;;;54.70;;
50695;SDS011;36665;51.786;21.594;2023-03-01T22:49:24;127.50;;;49.50;;
50695;SDS011;36665;51.786;21.594;2023-03-01T22:57:51;101.20;;;39.00;;
50695;SDS011;36665;51.786;21.594;2023-03-01T23:06:14;139.20;;;52.90;;
50695;SDS011;36665;51.786;21.594;2023-03-01T23:14:38;156.40;;;61.80;;
50695;SDS011;36665;51.786;21.594;2023-03-01T23:23:03;135.20;;;51.90;;
50695;SDS011;36665;51.786;21.594;2023-03-01T23:31:26;156.00;;;59.70;;
50695;SDS011;36665;51.786;21.594;2023-03-01T23:39:51;149.80;;;58.70;;
50695;SDS011;36665;51.786;21.594;2023-03-01T23:48:14;114.80;;;45.20;;
50695;SDS011;36665;51.786;21.594;2023-03-01T23:56:41;137.90;;;55.70;;
